Time;durP1;ratioP1;P1;durP2;ratioP2;P2;SDS_P1;SDS_P2;PMS_P1;PMS_P2;Temp;Humidity;BMP_temperature;BMP_pressure;BME280_temperature;BME280_humidity;BME280_pressure;Samples;Min_cycle;Max_cycle;Signal;HPM_P1;HPM_P2
2021/12/20 00:01:48;;;;;;;3.65;1.20;;;;;;;;;;6285626;28;20405;-81
2021/12/20 00:04:52;;;;;;;4.30;1.65;;;;;;;;;;6302639;28;20394;-79
2021/12/20 00:07:53;;;;;;;8.88;1.65;;;;;;;;;;6297877;28;20058;-78
2021/12/20 00:10:55;;;;;;;6.00;1.13;;;;;;;;;;6294199;28;20039;-78
2021/12/20 00:13:57;;;;;;;6.65;2.33;;;;;;;;;;6298637;28;20134;-81
2021/12/20 00:16:59;;;;;;;4.15;1.40;;;;;;;;;;6292905;28;20047;-81
2021/12/20 00:20:00;;;;;;;6.43;1.30;;;;;;;;;;6318260;28;20048;-80
2021/12/20 00:23:04;;;;;;;4.63;1.00;;;;;;;;;;6296795;28;20048;-78
2021/12/20 00:26:08;;;;;;;2.42;1.33;;;;;;;;;;6276997;28;20051;-80
2021/12/20 00:29:10;;;;;;;5.30;1.20;;;;;;;;;;6282712;28;20036;-80
2021/12/20 00:32:12;;;;;;;4.72;1.42;;;;;;;;;;6311020;28;20040;-80
2021/12/20 00:35:14;;;;;;;3.78;1.30;;;;;;;;;;6301245;28;20134;-80
2021/12/20 00:41:36;;;;;;;3.35;1.90;;;;;;;;;;6284823;28;20136;-81
2021/12/20 00:44:38;;;;;;;2.70;1.35;;;;;;;;;;6285975;28;20524;-77
2021/12/20 00:47:41;;;;;;;4.78;1.63;;;;;;;;;;6282394;28;20052;-80
2021/12/20 00:50:44;;;;;;;4.43;1.80;;;;;;;;;;6279777;28;20048;-80
2021/12/20 00:53:46;;;;;;;3.55;1.85;;;;;;;;;;6309235;28;20500;-80
2021/12/20 00:56:49;;;;;;;3.10;1.90;;;;;;;;;;6324230;28;20052;-81
2021/12/20 00:59:50;;;;;;;6.13;1.60;;;;;;;;;;6319862;28;20064;-79
2021/12/20 01:02:54;;;;;;;2.40;1.88;;;;;;;;;;6280253;28;20458;-79
2021/12/20 01:06:00;;;;;;;5.18;2.20;;;;;;;;;;6264182;28;20040;-81
2021/12/20 01:09:02;;;;;;;5.50;1.90;;;;;;;;;;6280430;28;20040;-80
2021/12/20 01:12:07;;;;;;;5.18;2.15;;;;;;;;;;6296394;28;20049;-80
2021/12/20 01:15:10;;;;;;;4.45;2.65;;;;;;;;;;6287478;28;20048;-81
2021/12/20 01:18:12;;;;;;;6.28;1.60;;;;;;;;;;6298397;28;20605;-81
2021/12/20 01:21:14;;;;;;;6.55;2.10;;;;;;;;;;6280271;28;20108;-81
2021/12/20 01:24:16;;;;;;;5.35;2.40;;;;;;;;;;6317495;28;20118;-78
2021/12/20 01:27:17;;;;;;;7.55;2.40;;;;;;;;;;6305825;28;20083;-80
2021/12/20 01:30:23;;;;;;;5.50;2.03;;;;;;;;;;6294876;28;20037;-79
2021/12/20 01:33:24;;;;;;;6.95;2.63;;;;;;;;;;6282449;28;20071;-79
2021/12/20 01:36:26;;;;;;;7.25;2.22;;;;;;;;;;6322897;28;20121;-81
2021/12/20 01:39:28;;;;;;;6.47;1.95;;;;;;;;;;6304652;28;20104;-78
2021/12/20 01:42:32;;;;;;;5.32;1.90;;;;;;;;;;6297672;28;20059;-80
2021/12/20 01:45:34;;;;;;;5.57;2.30;;;;;;;;;;6311688;28;20060;-80
2021/12/20 01:48:37;;;;;;;8.48;2.78;;;;;;;;;;6279661;28;20040;-81
2021/12/20 01:54:51;;;;;;;6.25;2.42;;;;;;;;;;6299783;28;20152;-80
2021/12/20 01:57:52;;;;;;;4.47;2.30;;;;;;;;;;6304258;28;20043;-80
2021/12/20 02:04:08;;;;;;;6.75;2.10;;;;;;;;;;6320868;28;20043;-80
2021/12/20 02:07:32;;;;;;;3.67;2.28;;;;;;;;;;6321338;28;20081;-78
2021/12/20 02:10:34;;;;;;;5.40;2.17;;;;;;;;;;6286084;28;20036;-81
2021/12/20 02:13:38;;;;;;;6.10;2.45;;;;;;;;;;6303340;28;20189;-81
2021/12/20 02:16:41;;;;;;;6.68;2.40;;;;;;;;;;6313735;28;20818;-81
2021/12/20 02:19:42;;;;;;;8.68;3.03;;;;;;;;;;6320961;28;20470;-80
2021/12/20 02:22:44;;;;;;;10.15;3.30;;;;;;;;;;6319493;28;20048;-78
2021/12/20 02:25:46;;;;;;;9.45;2.92;;;;;;;;;;6320478;28;20108;-78
2021/12/20 02:28:50;;;;;;;9.45;2.35;;;;;;;;;;6318834;28;20123;-78
2021/12/20 02:38:33;;;;;;;5.68;2.65;;;;;;;;;;6289642;28;20055;-81
2021/12/20 02:41:34;;;;;;;7.67;2.50;;;;;;;;;;6282222;28;20043;-79
2021/12/20 02:44:36;;;;;;;4.43;2.40;;;;;;;;;;6303048;28;20772;-79
2021/12/20 02:47:41;;;;;;;9.98;2.30;;;;;;;;;;6284131;28;20040;-80
2021/12/20 02:50:43;;;;;;;6.30;1.88;;;;;;;;;;6277974;28;20055;-78
2021/12/20 02:53:44;;;;;;;6.10;2.08;;;;;;;;;;6282898;28;20056;-80
2021/12/20 02:56:47;;;;;;;3.90;2.20;;;;;;;;;;6280269;28;20048;-80
2021/12/20 02:59:49;;;;;;;5.30;2.00;;;;;;;;;;6304506;28;20178;-78
2021/12/20 03:02:51;;;;;;;5.97;1.85;;;;;;;;;;6319650;28;20522;-81
2021/12/20 03:05:53;;;;;;;6.63;2.15;;;;;;;;;;6302108;28;20038;-78
2021/12/20 03:08:56;;;;;;;3.50;1.65;;;;;;;;;;6297083;28;20485;-80
2021/12/20 03:11:59;;;;;;;5.28;1.95;;;;;;;;;;6281296;28;20386;-78
2021/12/20 03:15:09;;;;;;;7.00;1.92;;;;;;;;;;6318039;28;20115;-77
2021/12/20 03:18:11;;;;;;;4.38;1.92;;;;;;;;;;6295118;28;20478;-80
2021/12/20 03:21:13;;;;;;;5.47;1.50;;;;;;;;;;6276095;28;20033;-79
2021/12/20 03:24:14;;;;;;;5.70;1.77;;;;;;;;;;6294339;28;20040;-81
2021/12/20 03:27:16;;;;;;;4.80;1.80;;;;;;;;;;6272062;28;20770;-81
2021/12/20 03:30:18;;;;;;;6.43;1.70;;;;;;;;;;6297438;28;20044;-79
2021/12/20 03:33:20;;;;;;;5.25;2.15;;;;;;;;;;6289996;28;20048;-79
2021/12/20 03:36:21;;;;;;;7.85;2.17;;;;;;;;;;6299666;28;20044;-77
2021/12/20 03:39:23;;;;;;;3.72;1.77;;;;;;;;;;6290837;28;20048;-80
2021/12/20 03:42:27;;;;;;;9.02;2.10;;;;;;;;;;6294416;28;20108;-79
2021/12/20 03:45:29;;;;;;;6.78;2.25;;;;;;;;;;6275093;28;20060;-80
2021/12/20 03:48:32;;;;;;;9.57;2.20;;;;;;;;;;6294401;28;20094;-81
2021/12/20 03:51:34;;;;;;;7.43;1.90;;;;;;;;;;6278368;28;20417;-79
2021/12/20 03:54:37;;;;;;;5.90;2.37;;;;;;;;;;6302059;28;20127;-80
2021/12/20 03:57:38;;;;;;;4.22;2.08;;;;;;;;;;6301552;28;20446;-80
2021/12/20 04:00:40;;;;;;;5.80;2.28;;;;;;;;;;6289717;28;20067;-80
2021/12/20 04:03:43;;;;;;;8.73;2.38;;;;;;;;;;6283944;28;20042;-80
2021/12/20 04:06:44;;;;;;;4.22;2.40;;;;;;;;;;6299828;28;20081;-81
2021/12/20 04:09:46;;;;;;;3.70;2.13;;;;;;;;;;6300302;28;20044;-80
2021/12/20 04:12:48;;;;;;;7.93;2.45;;;;;;;;;;6300074;28;20054;-80
2021/12/20 04:15:49;;;;;;;7.88;2.20;;;;;;;;;;6283838;28;20137;-79
2021/12/20 04:18:51;;;;;;;10.90;2.42;;;;;;;;;;6306267;28;20047;-79
2021/12/20 04:21:52;;;;;;;4.75;2.38;;;;;;;;;;6317068;28;20047;-78
2021/12/20 04:24:54;;;;;;;5.13;2.10;;;;;;;;;;6282316;28;20115;-78
2021/12/20 04:27:56;;;;;;;6.45;2.25;;;;;;;;;;6273465;28;20047;-82
2021/12/20 04:30:57;;;;;;;6.95;2.33;;;;;;;;;;6303383;28;20050;-78
2021/12/20 04:33:59;;;;;;;5.43;2.33;;;;;;;;;;6300976;28;20404;-79
2021/12/20 04:37:02;;;;;;;4.75;2.20;;;;;;;;;;6281336;28;20062;-81
2021/12/20 04:40:08;;;;;;;9.80;3.72;;;;;;;;;;6317400;28;20098;-81
2021/12/20 04:43:10;;;;;;;9.82;2.55;;;;;;;;;;6289991;28;20111;-81
2021/12/20 04:46:12;;;;;;;5.40;2.13;;;;;;;;;;6318230;28;20032;-80
2021/12/20 04:49:13;;;;;;;5.57;2.20;;;;;;;;;;6305105;28;20066;-81
2021/12/20 04:52:15;;;;;;;4.50;2.08;;;;;;;;;;6303744;28;20042;-81
2021/12/20 04:55:16;;;;;;;7.82;2.05;;;;;;;;;;6310897;28;20036;-80
2021/12/20 04:58:18;;;;;;;6.95;2.10;;;;;;;;;;6303485;28;20040;-78
2021/12/20 05:01:20;;;;;;;6.80;2.33;;;;;;;;;;6301480;28;20449;-81
2021/12/20 05:04:21;;;;;;;9.38;3.10;;;;;;;;;;6304333;28;20127;-81
2021/12/20 05:07:26;;;;;;;5.72;2.75;;;;;;;;;;6312080;28;20402;-78
2021/12/20 05:10:34;;;;;;;6.55;2.58;;;;;;;;;;6294333;28;20549;-81
2021/12/20 05:13:36;;;;;;;5.82;2.40;;;;;;;;;;6319168;28;20054;-81
2021/12/20 05:16:38;;;;;;;7.15;2.70;;;;;;;;;;6300134;28;20123;-80
2021/12/20 05:19:41;;;;;;;8.45;2.63;;;;;;;;;;6303378;28;20047;-81
2021/12/20 05:22:43;;;;;;;8.23;2.60;;;;;;;;;;6302844;28;20087;-81
2021/12/20 05:25:45;;;;;;;9.63;2.92;;;;;;;;;;6300917;28;20054;-80
2021/12/20 05:28:47;;;;;;;7.05;2.83;;;;;;;;;;6302077;28;20055;-78
2021/12/20 05:31:48;;;;;;;8.55;2.85;;;;;;;;;;6300547;28;20056;-77
2021/12/20 05:34:50;;;;;;;10.00;3.53;;;;;;;;;;6302967;28;20112;-80
2021/12/20 05:37:51;;;;;;;9.02;4.00;;;;;;;;;;6302666;28;20036;-80
2021/12/20 05:40:53;;;;;;;9.50;3.88;;;;;;;;;;6318483;28;20489;-80
2021/12/20 05:43:55;;;;;;;11.60;3.60;;;;;;;;;;6302232;28;20039;-82
2021/12/20 05:46:56;;;;;;;8.85;3.70;;;;;;;;;;6285689;28;20532;-80
2021/12/20 05:49:58;;;;;;;9.95;3.13;;;;;;;;;;6302185;28;20050;-80
2021/12/20 05:53:00;;;;;;;9.75;3.28;;;;;;;;;;6300852;28;20893;-80
2021/12/20 05:56:01;;;;;;;10.88;4.45;;;;;;;;;;6302240;28;20224;-81
2021/12/20 05:59:03;;;;;;;14.40;4.53;;;;;;;;;;6301041;28;20523;-81
2021/12/20 06:02:05;;;;;;;12.63;4.20;;;;;;;;;;6289168;28;20400;-81
2021/12/20 06:05:08;;;;;;;10.60;4.72;;;;;;;;;;6293754;28;20104;-79
2021/12/20 06:08:10;;;;;;;9.32;3.92;;;;;;;;;;6294295;28;20055;-81
2021/12/20 06:11:13;;;;;;;15.15;4.10;;;;;;;;;;6293801;28;20046;-80
2021/12/20 06:14:16;;;;;;;8.40;3.80;;;;;;;;;;6300418;28;20044;-79
2021/12/20 06:17:18;;;;;;;13.70;4.40;;;;;;;;;;6313933;28;20634;-81
2021/12/20 06:20:19;;;;;;;12.73;4.03;;;;;;;;;;6318867;28;20131;-81
2021/12/20 06:23:21;;;;;;;14.23;4.20;;;;;;;;;;6318523;28;20051;-81
2021/12/20 06:26:23;;;;;;;10.20;4.22;;;;;;;;;;6300074;28;20032;-81
2021/12/20 06:29:25;;;;;;;9.38;4.13;;;;;;;;;;6317948;28;20150;-80
2021/12/20 06:32:27;;;;;;;9.68;4.60;;;;;;;;;;6283841;28;20059;-81
2021/12/20 06:35:29;;;;;;;13.55;5.97;;;;;;;;;;6300507;28;20111;-78
2021/12/20 06:38:32;;;;;;;9.95;4.65;;;;;;;;;;6299203;28;20036;-80
2021/12/20 06:41:34;;;;;;;13.82;5.63;;;;;;;;;;6318547;28;20047;-80
2021/12/20 06:44:36;;;;;;;9.18;4.85;;;;;;;;;;6299030;28;20039;-80
2021/12/20 06:47:37;;;;;;;15.43;6.13;;;;;;;;;;6300043;28;20099;-78
2021/12/20 06:50:39;;;;;;;13.38;6.03;;;;;;;;;;6317673;28;20071;-81
2021/12/20 06:53:41;;;;;;;14.43;6.75;;;;;;;;;;6299030;28;20076;-82
2021/12/20 06:56:43;;;;;;;9.30;4.78;;;;;;;;;;6284802;28;20115;-81
2021/12/20 06:59:45;;;;;;;8.27;5.07;;;;;;;;;;6315057;28;20056;-82
2021/12/20 07:02:47;;;;;;;11.25;5.55;;;;;;;;;;6260946;28;20512;-81
2021/12/20 07:05:51;;;;;;;17.00;6.80;;;;;;;;;;6278071;28;20040;-80
2021/12/20 07:08:53;;;;;;;12.45;5.72;;;;;;;;;;6283861;28;20060;-80
2021/12/20 07:11:54;;;;;;;16.50;6.05;;;;;;;;;;6276813;28;20047;-81
2021/12/20 07:14:56;;;;;;;11.73;4.85;;;;;;;;;;6297033;28;20044;-79
2021/12/20 07:17:58;;;;;;;14.25;5.25;;;;;;;;;;6288665;28;20040;-80
2021/12/20 07:21:00;;;;;;;14.60;5.43;;;;;;;;;;6277907;28;20049;-80
2021/12/20 07:24:02;;;;;;;15.00;6.63;;;;;;;;;;6281999;28;20043;-79
2021/12/20 07:27:05;;;;;;;18.27;7.20;;;;;;;;;;6321878;28;20051;-79
2021/12/20 07:30:08;;;;;;;16.27;6.47;;;;;;;;;;6303331;28;20051;-79
2021/12/20 07:33:09;;;;;;;16.65;6.47;;;;;;;;;;6304626;28;20112;-78
2021/12/20 07:36:15;;;;;;;16.95;6.95;;;;;;;;;;6323754;28;20048;-78
2021/12/20 07:39:16;;;;;;;17.15;5.82;;;;;;;;;;6311620;28;20128;-78
2021/12/20 07:42:26;;;;;;;13.52;5.78;;;;;;;;;;6293712;28;20041;-79
2021/12/20 07:45:33;;;;;;;19.48;7.53;;;;;;;;;;6295641;28;20493;-78
2021/12/20 07:48:34;;;;;;;19.65;9.00;;;;;;;;;;6263382;28;20036;-77
2021/12/20 07:51:36;;;;;;;31.27;11.88;;;;;;;;;;6297568;28;20040;-78
2021/12/20 07:54:38;;;;;;;19.42;7.78;;;;;;;;;;6297544;28;20187;-76
2021/12/20 07:57:39;;;;;;;13.38;7.15;;;;;;;;;;6279952;28;20036;-78
2021/12/20 08:00:41;;;;;;;16.00;6.68;;;;;;;;;;6316064;28;20066;-78
2021/12/20 08:03:43;;;;;;;18.27;5.57;;;;;;;;;;6322763;28;20780;-78
2021/12/20 08:06:45;;;;;;;19.70;5.57;;;;;;;;;;6305376;28;20139;-80
2021/12/20 08:09:49;;;;;;;15.25;6.07;;;;;;;;;;6303110;28;20076;-76
2021/12/20 08:12:51;;;;;;;;;;;;;;;;;;6305430;28;20063;-78
2021/12/20 08:15:52;;;;;;;25.52;6.85;;;;;;;;;;6273148;28;20003;-78
2021/12/20 08:18:54;;;;;;;31.63;7.35;;;;;;;;;;6316680;28;20036;-79
2021/12/20 08:21:56;;;;;;;17.85;6.65;;;;;;;;;;6303138;28;20127;-78
2021/12/20 08:24:57;;;;;;;17.17;5.63;;;;;;;;;;6308209;28;20042;-77
2021/12/20 08:27:59;;;;;;;14.93;6.60;;;;;;;;;;6296781;28;20036;-77
2021/12/20 08:31:08;;;;;;;25.35;10.65;;;;;;;;;;6306202;28;20246;-78
2021/12/20 08:34:10;;;;;;;42.92;18.00;;;;;;;;;;6302184;28;20050;-77
2021/12/20 08:37:12;;;;;;;36.78;12.50;;;;;;;;;;6305575;28;20052;-77
2021/12/20 08:40:15;;;;;;;35.00;11.30;;;;;;;;;;6295938;28;20046;-79
2021/12/20 08:43:19;;;;;;;33.00;11.13;;;;;;;;;;6300390;28;20079;-80
2021/12/20 08:46:21;;;;;;;24.65;7.32;;;;;;;;;;6299717;28;20047;-77
2021/12/20 08:49:22;;;;;;;21.45;6.47;;;;;;;;;;6316330;28;20131;-79
2021/12/20 08:52:24;;;;;;;92.18;29.90;;;;;;;;;;6288326;28;20123;-79
2021/12/20 08:55:26;;;;;;;24.77;8.32;;;;;;;;;;6296154;28;20143;-79
2021/12/20 08:58:28;;;;;;;20.45;7.60;;;;;;;;;;6296793;28;20064;-79
2021/12/20 09:01:30;;;;;;;100.70;18.48;;;;;;;;;;6282383;28;20116;-77
2021/12/20 09:04:31;;;;;;;31.73;6.05;;;;;;;;;;6295677;28;20051;-78
2021/12/20 09:07:33;;;;;;;47.88;6.55;;;;;;;;;;6324307;28;20040;-79
2021/12/20 09:10:36;;;;;;;17.42;5.65;;;;;;;;;;6292190;28;20107;-79
2021/12/20 09:13:37;;;;;;;28.05;6.82;;;;;;;;;;6324732;28;20044;-79
2021/12/20 09:16:40;;;;;;;16.00;6.88;;;;;;;;;;6318318;28;20037;-80
2021/12/20 09:19:42;;;;;;;25.03;8.10;;;;;;;;;;6302110;28;20121;-78
2021/12/20 09:22:51;;;;;;;17.80;7.13;;;;;;;;;;6262682;28;20528;-80
2021/12/20 09:25:53;;;;;;;21.70;8.15;;;;;;;;;;6323057;28;20042;-78
2021/12/20 09:28:55;;;;;;;17.85;8.25;;;;;;;;;;6305894;28;20044;-79
2021/12/20 09:31:57;;;;;;;30.33;12.52;;;;;;;;;;6284146;28;20036;-79
2021/12/20 09:34:59;;;;;;;31.27;13.33;;;;;;;;;;6297095;28;20064;-80
2021/12/20 09:38:05;;;;;;;29.73;12.43;;;;;;;;;;6325019;28;20126;-78
2021/12/20 09:44:10;;;;;;;35.42;15.80;;;;;;;;;;6305441;28;20773;-79
2021/12/20 09:47:12;;;;;;;;;;;;;;;;;;6305997;28;20100;-80
2021/12/20 09:50:14;;;;;;;19.95;9.35;;;;;;;;;;6281988;28;20011;-80
2021/12/20 09:53:16;;;;;;;19.35;9.43;;;;;;;;;;6281502;28;20048;-80
2021/12/20 09:56:19;;;;;;;20.98;10.82;;;;;;;;;;6283325;28;20044;-80
2021/12/20 09:59:24;;;;;;;19.52;10.43;;;;;;;;;;6307487;28;20064;-80
2021/12/20 10:02:26;;;;;;;13.32;6.88;;;;;;;;;;6298940;28;20056;-79
2021/12/20 10:05:28;;;;;;;18.75;8.73;;;;;;;;;;6285169;28;20049;-78
2021/12/20 10:08:34;;;;;;;26.80;12.18;;;;;;;;;;6297076;28;20048;-80
2021/12/20 10:11:37;;;;;;;17.48;8.70;;;;;;;;;;6304357;28;20051;-79
2021/12/20 10:14:59;;;;;;;;;;;;;;;;;;6290040;28;20046;-80
2021/12/20 10:18:01;;;;;;;13.57;6.15;;;;;;;;;;6312469;28;20413;-81
2021/12/20 10:21:04;;;;;;;10.50;5.90;;;;;;;;;;6304895;28;20089;-79
2021/12/20 10:24:05;;;;;;;13.77;4.65;;;;;;;;;;6299510;28;20131;-78
2021/12/20 10:27:27;;;;;;;12.95;5.32;;;;;;;;;;6297689;28;20037;-79
2021/12/20 10:30:32;;;;;;;14.02;5.85;;;;;;;;;;6312312;28;20055;-80
2021/12/20 10:33:34;;;;;;;11.02;5.30;;;;;;;;;;6318579;28;20048;-80
2021/12/20 10:36:36;;;;;;;16.30;11.35;;;;;;;;;;6289039;28;20124;-79
2021/12/20 10:39:41;;;;;;;22.13;10.95;;;;;;;;;;6286594;28;20476;-79
2021/12/20 10:42:43;;;;;;;15.75;4.80;;;;;;;;;;6288064;28;20044;-79
2021/12/20 10:45:45;;;;;;;7.88;3.10;;;;;;;;;;6323541;28;20063;-80
2021/12/20 10:49:05;;;;;;;11.35;3.28;;;;;;;;;;6299086;28;20052;-79
2021/12/20 10:52:09;;;;;;;10.30;3.70;;;;;;;;;;6284961;28;20051;-80
2021/12/20 10:55:11;;;;;;;14.02;3.88;;;;;;;;;;6298855;28;20150;-78
2021/12/20 10:58:16;;;;;;;11.15;3.10;;;;;;;;;;6315474;28;20051;-79
2021/12/20 11:05:00;;;;;;;14.68;2.60;;;;;;;;;;6297274;28;20051;-78
2021/12/20 11:12:00;;;;;;;14.25;4.50;;;;;;;;;;6321269;28;20056;-78
2021/12/20 11:15:10;;;;;;;49.03;18.23;;;;;;;;;;6321180;28;20115;-78
2021/12/20 11:18:16;;;;;;;21.60;8.27;;;;;;;;;;6313223;28;20044;-78
2021/12/20 11:21:19;;;;;;;14.95;4.63;;;;;;;;;;6296766;28;20048;-77
2021/12/20 11:24:30;;;;;;;8.32;2.63;;;;;;;;;;6303910;28;20036;-78
2021/12/20 11:27:40;;;;;;;6.47;2.28;;;;;;;;;;6320923;28;20135;-78
2021/12/20 11:30:42;;;;;;;8.55;2.60;;;;;;;;;;6307306;28;20062;-77
2021/12/20 11:33:43;;;;;;;6.97;2.03;;;;;;;;;;6313475;28;20039;-78
2021/12/20 11:36:45;;;;;;;6.88;1.92;;;;;;;;;;6299953;28;20052;-78
2021/12/20 11:39:49;;;;;;;2.40;1.30;;;;;;;;;;6293884;28;20051;-77
2021/12/20 11:42:50;;;;;;;4.28;1.40;;;;;;;;;;6280404;28;20047;-77
2021/12/20 11:45:53;;;;;;;2.53;1.10;;;;;;;;;;6275246;28;20508;-77
2021/12/20 11:48:56;;;;;;;5.30;1.52;;;;;;;;;;6292957;28;20039;-77
2021/12/20 11:52:06;;;;;;;5.43;1.20;;;;;;;;;;6285272;28;20051;-77
2021/12/20 11:55:21;;;;;;;3.78;1.33;;;;;;;;;;6302732;28;20044;-77
2021/12/20 11:58:26;;;;;;;5.15;1.30;;;;;;;;;;6273995;28;20080;-77
2021/12/20 12:01:27;;;;;;;4.40;1.08;;;;;;;;;;6294036;28;20044;-78
2021/12/20 12:04:54;;;;;;;2.03;0.80;;;;;;;;;;6296949;28;20078;-77
2021/12/20 12:08:21;;;;;;;3.47;0.80;;;;;;;;;;6299781;28;20040;-77
2021/12/20 12:11:23;;;;;;;2.58;0.77;;;;;;;;;;6290158;28;20048;-77
2021/12/20 12:14:34;;;;;;;3.50;0.87;;;;;;;;;;6279848;28;20047;-79
2021/12/20 12:17:50;;;;;;;2.30;0.65;;;;;;;;;;6275095;28;20443;-78
2021/12/20 12:20:53;;;;;;;2.83;1.05;;;;;;;;;;6301352;28;20044;-78
2021/12/20 12:23:56;;;;;;;3.40;0.80;;;;;;;;;;6307532;28;20113;-77
2021/12/20 12:27:18;;;;;;;2.50;0.90;;;;;;;;;;6306525;28;20040;-77
2021/12/20 12:30:28;;;;;;;4.63;1.20;;;;;;;;;;6288407;28;20119;-80
2021/12/20 12:33:36;;;;;;;2.45;0.90;;;;;;;;;;6301079;28;20048;-79
2021/12/20 12:36:40;;;;;;;6.05;1.23;;;;;;;;;;6301890;28;20100;-80
2021/12/20 12:39:42;;;;;;;1.80;0.60;;;;;;;;;;6306820;28;20046;-79
2021/12/20 12:42:52;;;;;;;2.53;1.13;;;;;;;;;;6310482;28;20121;-80
2021/12/20 12:46:02;;;;;;;3.55;1.02;;;;;;;;;;6327074;28;20059;-79
2021/12/20 12:49:29;;;;;;;2.60;0.65;;;;;;;;;;6294766;28;20044;-79
2021/12/20 12:52:33;;;;;;;2.13;1.23;;;;;;;;;;6307893;28;20386;-78
2021/12/20 12:55:40;;;;;;;4.00;0.80;;;;;;;;;;6320464;28;20601;-78
2021/12/20 12:58:41;;;;;;;3.50;0.95;;;;;;;;;;6305739;28;20044;-80
2021/12/20 13:01:46;;;;;;;2.58;1.30;;;;;;;;;;6329695;28;20496;-80
2021/12/20 13:04:49;;;;;;;2.65;0.80;;;;;;;;;;6312251;28;20051;-79
2021/12/20 13:07:59;;;;;;;2.83;0.57;;;;;;;;;;6310159;28;20106;-79
2021/12/20 13:11:01;;;;;;;2.78;0.90;;;;;;;;;;6295258;28;20046;-79
2021/12/20 13:14:16;;;;;;;6.95;1.98;;;;;;;;;;6325083;28;20041;-79
2021/12/20 13:17:30;;;;;;;5.60;1.70;;;;;;;;;;6322009;28;20066;-81
2021/12/20 13:23:36;;;;;;;5.38;1.60;;;;;;;;;;6321485;28;20003;-79
2021/12/20 13:26:38;;;;;;;3.28;1.15;;;;;;;;;;6303453;28;20051;-79
2021/12/20 13:29:49;;;;;;;3.33;1.38;;;;;;;;;;6307901;28;20059;-80
2021/12/20 13:32:57;;;;;;;5.15;1.52;;;;;;;;;;6324783;28;20064;-79
2021/12/20 13:36:08;;;;;;;3.45;1.40;;;;;;;;;;6311718;28;20123;-79
2021/12/20 13:39:12;;;;;;;3.67;1.55;;;;;;;;;;6320308;28;20127;-79
2021/12/20 13:42:14;;;;;;;3.50;1.33;;;;;;;;;;6310268;28;20048;-79
2021/12/20 13:45:16;;;;;;;3.50;1.20;;;;;;;;;;6326706;28;20100;-78
2021/12/20 13:48:17;;;;;;;2.95;0.75;;;;;;;;;;6304282;28;20105;-79
2021/12/20 13:51:20;;;;;;;6.40;1.77;;;;;;;;;;6301207;28;20052;-78
2021/12/20 13:54:32;;;;;;;5.82;1.75;;;;;;;;;;6296195;28;20044;-80
2021/12/20 13:57:34;;;;;;;4.75;1.80;;;;;;;;;;6322212;28;20044;-81
2021/12/20 14:00:36;;;;;;;5.30;2.17;;;;;;;;;;6317459;28;20121;-78
2021/12/20 14:03:40;;;;;;;4.93;2.30;;;;;;;;;;6296937;28;20048;-77
2021/12/20 14:06:42;;;;;;;6.47;2.00;;;;;;;;;;6281437;28;20072;-80
2021/12/20 14:10:08;;;;;;;2.90;1.50;;;;;;;;;;6291423;28;20130;-79
2021/12/20 14:13:16;;;;;;;6.13;2.13;;;;;;;;;;6302253;28;20064;-79
2021/12/20 14:16:18;;;;;;;3.47;1.20;;;;;;;;;;6323459;28;20051;-77
2021/12/20 14:19:20;;;;;;;3.75;1.02;;;;;;;;;;6315401;28;20120;-78
2021/12/20 14:22:21;;;;;;;4.40;1.20;;;;;;;;;;6298452;28;20051;-77
2021/12/20 14:25:54;;;;;;;4.85;2.50;;;;;;;;;;6298960;28;20063;-77
2021/12/20 14:29:03;;;;;;;11.63;5.75;;;;;;;;;;6316330;28;20051;-77
2021/12/20 14:32:07;;;;;;;8.93;3.83;;;;;;;;;;6320165;28;20078;-78
2021/12/20 14:35:23;;;;;;;;;;;;;;;;;;6312257;28;20062;-79
2021/12/20 14:38:39;;;;;;;6.47;3.55;;;;;;;;;;6282846;28;19995;-78
2021/12/20 14:41:44;;;;;;;21.90;9.32;;;;;;;;;;6311782;28;20043;-77
2021/12/20 14:44:53;;;;;;;12.98;5.47;;;;;;;;;;6296289;28;20064;-78
2021/12/20 14:48:16;;;;;;;24.83;12.60;;;;;;;;;;6319887;28;20129;-78
2021/12/20 14:51:21;;;;;;;28.90;14.80;;;;;;;;;;6317118;28;20047;-78
2021/12/20 14:54:24;;;;;;;13.82;6.20;;;;;;;;;;6285981;28;20496;-78
2021/12/20 14:57:30;;;;;;;5.60;2.42;;;;;;;;;;6303517;28;20123;-79
2021/12/20 15:00:32;;;;;;;4.05;2.03;;;;;;;;;;6310901;28;20051;-78
2021/12/20 15:03:41;;;;;;;5.78;2.92;;;;;;;;;;6297902;28;20102;-78
2021/12/20 15:06:54;;;;;;;6.28;4.28;;;;;;;;;;6281997;28;20052;-77
2021/12/20 15:09:57;;;;;;;10.02;6.65;;;;;;;;;;6288433;28;20085;-78
2021/12/20 15:12:58;;;;;;;9.85;4.13;;;;;;;;;;6322769;28;20901;-79
2021/12/20 15:16:00;;;;;;;6.60;3.28;;;;;;;;;;6316646;28;20052;-77
2021/12/20 15:19:03;;;;;;;4.00;1.67;;;;;;;;;;6297608;28;20113;-78
2021/12/20 15:22:05;;;;;;;4.30;1.70;;;;;;;;;;6299571;28;20089;-77
2021/12/20 15:25:07;;;;;;;4.15;1.65;;;;;;;;;;6315927;28;20043;-77
2021/12/20 15:28:09;;;;;;;8.30;3.95;;;;;;;;;;6320537;28;20529;-78
2021/12/20 15:31:10;;;;;;;14.35;5.57;;;;;;;;;;6302236;28;20047;-76
2021/12/20 15:34:13;;;;;;;15.75;6.15;;;;;;;;;;6275765;28;20040;-77
2021/12/20 15:37:15;;;;;;;12.27;4.03;;;;;;;;;;6293338;28;20079;-78
2021/12/20 15:40:16;;;;;;;31.65;13.70;;;;;;;;;;6288884;28;20051;-77
2021/12/20 15:43:18;;;;;;;8.10;3.92;;;;;;;;;;6295048;28;20064;-78
2021/12/20 15:46:26;;;;;;;8.65;4.53;;;;;;;;;;6288554;28;20351;-78
2021/12/20 15:49:27;;;;;;;8.93;3.47;;;;;;;;;;6300104;28;20094;-78
2021/12/20 15:52:29;;;;;;;9.55;4.00;;;;;;;;;;6280894;28;20045;-79
2021/12/20 15:55:51;;;;;;;10.80;5.95;;;;;;;;;;6314168;28;20059;-78
2021/12/20 15:58:55;;;;;;;21.02;13.95;;;;;;;;;;6323657;28;20100;-78
2021/12/20 16:01:56;;;;;;;16.35;11.50;;;;;;;;;;6307295;28;20091;-77
2021/12/20 16:05:01;;;;;;;30.75;16.27;;;;;;;;;;6323383;28;20036;-78
2021/12/20 16:08:03;;;;;;;30.95;16.67;;;;;;;;;;6301484;28;20044;-79
2021/12/20 16:11:22;;;;;;;15.25;11.02;;;;;;;;;;6277603;28;20060;-78
2021/12/20 16:14:24;;;;;;;20.38;11.05;;;;;;;;;;6277764;28;20107;-77
2021/12/20 16:17:25;;;;;;;22.45;10.93;;;;;;;;;;6286511;28;20046;-77
2021/12/20 16:20:27;;;;;;;22.83;7.78;;;;;;;;;;6299268;28;20040;-78
2021/12/20 16:23:29;;;;;;;35.72;14.55;;;;;;;;;;6297475;28;20047;-81
2021/12/20 16:26:31;;;;;;;21.27;8.27;;;;;;;;;;6280350;28;20044;-78
2021/12/20 16:29:32;;;;;;;16.60;7.75;;;;;;;;;;6286272;28;20051;-78
2021/12/20 16:32:35;;;;;;;24.98;11.70;;;;;;;;;;6285824;28;20040;-79
2021/12/20 16:35:38;;;;;;;14.70;7.68;;;;;;;;;;6285367;28;20439;-78
2021/12/20 16:38:39;;;;;;;10.88;6.68;;;;;;;;;;6301790;28;20388;-79
2021/12/20 16:41:42;;;;;;;14.00;7.75;;;;;;;;;;6302188;28;20047;-78
2021/12/20 16:44:47;;;;;;;23.23;11.02;;;;;;;;;;6299665;28;20505;-78
2021/12/20 16:47:50;;;;;;;13.75;6.60;;;;;;;;;;6282589;28;20214;-79
2021/12/20 16:50:56;;;;;;;15.63;11.63;;;;;;;;;;6281059;28;20045;-78
2021/12/20 16:53:57;;;;;;;11.27;5.13;;;;;;;;;;6282006;28;20108;-79
2021/12/20 16:56:59;;;;;;;9.60;4.20;;;;;;;;;;6287340;28;20047;-80
2021/12/20 17:00:06;;;;;;;13.30;6.13;;;;;;;;;;6311512;28;20086;-79
2021/12/20 17:03:20;;;;;;;14.27;6.20;;;;;;;;;;6312301;28;20044;-81
2021/12/20 17:06:26;;;;;;;14.27;6.68;;;;;;;;;;6310581;28;20048;-81
2021/12/20 17:09:28;;;;;;;12.45;6.25;;;;;;;;;;6301715;28;20075;-77
2021/12/20 17:12:29;;;;;;;12.55;6.15;;;;;;;;;;6269390;28;20043;-78
2021/12/20 17:15:31;;;;;;;12.38;6.72;;;;;;;;;;6261884;28;20040;-77
2021/12/20 17:18:33;;;;;;;17.35;10.65;;;;;;;;;;6294879;28;20044;-81
2021/12/20 17:21:35;;;;;;;17.00;9.25;;;;;;;;;;6311490;28;20110;-81
2021/12/20 17:24:36;;;;;;;12.48;8.63;;;;;;;;;;6291324;28;20099;-81
2021/12/20 17:27:38;;;;;;;18.83;9.70;;;;;;;;;;6273112;28;20060;-81
2021/12/20 17:30:40;;;;;;;14.43;7.03;;;;;;;;;;6309825;28;20108;-81
2021/12/20 17:33:41;;;;;;;17.08;8.73;;;;;;;;;;6297341;28;20291;-79
2021/12/20 17:36:43;;;;;;;19.98;10.13;;;;;;;;;;6280086;28;20054;-81
2021/12/20 17:39:45;;;;;;;23.42;11.40;;;;;;;;;;6307425;28;20156;-82
2021/12/20 17:42:47;;;;;;;18.90;9.95;;;;;;;;;;6297282;28;20462;-81
2021/12/20 17:45:49;;;;;;;24.27;9.87;;;;;;;;;;6291032;28;20420;-82
2021/12/20 17:48:52;;;;;;;18.08;9.55;;;;;;;;;;6298460;28;20965;-80
2021/12/20 17:51:54;;;;;;;26.55;10.13;;;;;;;;;;6317747;28;20050;-80
2021/12/20 17:54:55;;;;;;;22.83;10.23;;;;;;;;;;6318434;28;20055;-80
2021/12/20 17:57:58;;;;;;;21.83;9.75;;;;;;;;;;6320162;28;20139;-80
2021/12/20 18:01:00;;;;;;;20.38;10.63;;;;;;;;;;6300135;28;20039;-80
2021/12/20 18:04:02;;;;;;;23.05;11.40;;;;;;;;;;6306943;28;20688;-80
2021/12/20 18:07:04;;;;;;;23.97;12.40;;;;;;;;;;6294634;28;20036;-79
2021/12/20 18:10:06;;;;;;;30.73;12.65;;;;;;;;;;6301443;28;20659;-80
2021/12/20 18:13:08;;;;;;;34.95;14.20;;;;;;;;;;6306920;28;20047;-79
2021/12/20 18:16:09;;;;;;;48.05;18.58;;;;;;;;;;6316093;28;20051;-80
2021/12/20 18:19:11;;;;;;;74.88;24.92;;;;;;;;;;6316729;28;20043;-79
2021/12/20 18:22:13;;;;;;;72.30;23.42;;;;;;;;;;6295712;28;20138;-80
2021/12/20 18:25:15;;;;;;;65.88;22.50;;;;;;;;;;6316299;28;20042;-80
2021/12/20 18:28:17;;;;;;;68.20;19.23;;;;;;;;;;6315446;28;21556;-79
2021/12/20 18:31:19;;;;;;;49.78;16.63;;;;;;;;;;6285674;28;20044;-79
2021/12/20 18:34:21;;;;;;;44.53;15.30;;;;;;;;;;6269974;28;20679;-78
2021/12/20 18:37:23;;;;;;;34.92;13.38;;;;;;;;;;6277064;28;20417;-79
2021/12/20 18:40:25;;;;;;;29.55;10.75;;;;;;;;;;6313511;28;20723;-79
2021/12/20 18:43:28;;;;;;;29.77;11.55;;;;;;;;;;6313296;28;20520;-79